Terminal Aerodrome Forecast
Issued by NWS

Home | Current Version | Previous Version | Text Only | Print | Product List | Glossary On
Versions: 1 2 3 4 5 6 7 8 9 10 11 12 13 14 15 16 17 18 19
516
FTPA31 PHFO 040835 AAA
TAFHNY
TAF AMD
PHNY 040835Z 0409/0506 28005KT P6SM BKN003 BKN008
      TEMPO 0409/0413 OVC005
     FM041300 VRB03KT P6SM SCT003 BKN010
      TEMPO 0413/0417 2SM BR
     FM041800 17010KT P6SM VCSH SCT015 BKN035=

USA.gov is the U.S. government's official web portal to all federal, state and local government web resources and services.